地図

経路データ

SID SEASON NUMBER BASIN SUBBASIN NAME ISO_TIME NATURE LAT LON WMO_WIND WMO_PRES WMO_AGENCY TRACK_TYPE DIST2LAND LANDFALL IFLAG USA_AGENCY USA_ATCF_ID USA_LAT USA_LON USA_RECORD USA_STATUS USA_WIND USA_PRES USA_SSHS USA_R34_NE USA_R34_SE USA_R34_SW USA_R34_NW USA_R50_NE USA_R50_SE USA_R50_SW USA_R50_NW USA_R64_NE USA_R64_SE USA_R64_SW USA_R64_NW USA_POCI USA_ROCI USA_RMW USA_EYE TOKYO_LAT TOKYO_LON TOKYO_GRADE TOKYO_WIND TOKYO_PRES TOKYO_R50_DIR TOKYO_R50_LONG TOKYO_R50_SHORT TOKYO_R30_DIR TOKYO_R30_LONG TOKYO_R30_SHORT TOKYO_LAND CMA_LAT CMA_LON CMA_CAT CMA_WIND CMA_PRES HKO_LAT HKO_LON HKO_CAT HKO_WIND HKO_PRES NEWDELHI_LAT NEWDELHI_LON NEWDELHI_GRADE NEWDELHI_WIND NEWDELHI_PRES NEWDELHI_CI NEWDELHI_DP NEWDELHI_POCI REUNION_LAT REUNION_LON REUNION_TYPE REUNION_WIND REUNION_PRES REUNION_TNUM REUNION_CI REUNION_RMW REUNION_R34_NE REUNION_R34_SE REUNION_R34_SW REUNION_R34_NW REUNION_R50_NE REUNION_R50_SE REUNION_R50_SW REUNION_R50_NW REUNION_R64_NE REUNION_R64_SE REUNION_R64_SW REUNION_R64_NW BOM_LAT BOM_LON BOM_TYPE BOM_WIND BOM_PRES BOM_TNUM BOM_CI BOM_RMW BOM_R34_NE BOM_R34_SE BOM_R34_SW BOM_R34_NW BOM_R50_NE BOM_R50_SE BOM_R50_SW BOM_R50_NW BOM_R64_NE BOM_R64_SE BOM_R64_SW BOM_R64_NW BOM_ROCI BOM_POCI BOM_EYE BOM_POS_METHOD BOM_PRES_METHOD NADI_LAT NADI_LON NADI_CAT NADI_WIND NADI_PRES WELLINGTON_LAT WELLINGTON_LON WELLINGTON_WIND WELLINGTON_PRES DS824_LAT DS824_LON DS824_STAGE DS824_WIND DS824_PRES TD9636_LAT TD9636_LON TD9636_STAGE TD9636_WIND TD9636_PRES TD9635_LAT TD9635_LON TD9635_WIND TD9635_PRES TD9635_ROCI NEUMANN_LAT NEUMANN_LON NEUMANN_CLASS NEUMANN_WIND NEUMANN_PRES MLC_LAT MLC_LON MLC_CLASS MLC_WIND MLC_PRES USA_GUST BOM_GUST BOM_GUST_PER REUNION_GUST REUNION_GUST_PER USA_SEAHGT USA_SEARAD_NE USA_SEARAD_SE USA_SEARAD_SW USA_SEARAD_NW STORM_SPEED STORM_DIR
2000024S12100 2000 6 SI WA KIRRILY 2000-01-24 04:00:00 NR -11.5000 99.8000 25 1000 bom main 793 760 ______O_______ -1 -11.5000 99.8000 20 25 1000 2.00000 161 1008 3 5 11 88
2000024S12100 2000 6 SI WA KIRRILY 2000-01-24 06:00:00 NR -11.4883 100.190 main 760 714 ______P_______ -1 -11.4883 100.190 20 25 1000 161 1008 12 89
2000024S12100 2000 6 SI WA KIRRILY 2000-01-24 09:00:00 NR -11.4899 100.792 main 714 700 ______P_______ -1 -11.4899 100.792 20 25 1000 161 1008 12 91
2000024S12100 2000 6 SI WA KIRRILY 2000-01-24 10:00:00 NR -11.5000 101.000 25 1000 bom main 700 654 ______O_______ -1 -11.5000 101.000 20 25 1000 2.00000 161 1008 3 5 20 98
2000024S12100 2000 6 SI WA KIRRILY 2000-01-24 12:00:00 TS -11.6266 101.821 main 654 629 O_____P_____O_ jtwc_sh SH092000 -11.8000 102.600 25 -1 -11.5400 101.431 20 25 1000 161 1008 -11.8000 102.600 TC 25 18 100
2000024S12100 2000 6 SI WA KIRRILY 2000-01-24 15:00:00 TS -11.7700 102.489 main 633 623 P_____P_____P_ SH092000 -11.8901 102.892 22 -1 -11.6500 102.086 20 25 1000 161 1008 -11.8901 102.892 TC 22 14 103
2000024S12100 2000 6 SI WA KIRRILY 2000-01-24 16:00:00 TS -11.8341 102.716 25 1000 bom main 623 620 P_____O_____P_ SH092000 -11.9236 102.993 21 -1 -11.7000 102.300 20 25 1000 2.00000 161 1008 3 5 -11.9236 102.993 TC 21 11 107
2000024S12100 2000 6 SI WA KIRRILY 2000-01-24 18:00:00 TS -11.9373 103.034 main 620 616 O_____P_____O_ jtwc_sh SH092000 -12.0000 103.200 20 -1 -11.8119 102.703 20 25 1000 161 1008 -12.0000 103.200 TC 20 9 110
2000024S12100 2000 6 SI WA KIRRILY 2000-01-24 21:00:00 TS -12.1023 103.464 main 615 609 P_____P_____P_ SH092000 -12.1423 103.548 20 -1 -12.0223 103.297 20 25 1000 161 1008 -12.1423 103.548 TC 20 9 111
2000024S12100 2000 6 SI WA KIRRILY 2000-01-24 22:00:00 TS -12.1629 103.622 25 1000 bom main 619 608 P_____O_____P_ SH092000 -12.1944 103.683 20 -1 -12.1000 103.500 20 25 1000 2.00000 161 1008 3 5 -12.1944 103.683 TC 20 11 110
2000024S12100 2000 6 SI WA KIRRILY 2000-01-25 00:00:00 TS -12.2880 103.973 main 608 597 O_____P_____O_ jtwc_sh SH092000 -12.3000 104.000 20 -1 -12.2641 103.920 20 25 1000 161 1008 -12.3000 104.000 TC 20 12 108
2000024S12100 2000 6 SI WA KIRRILY 2000-01-25 03:00:00 TS -12.4784 104.625 main 604 597 P_____P_____P_ SH092000 -12.4578 104.650 22 -1 -12.5197 104.575 20 25 1000 161 1008 -12.4578 104.650 TC 22 13 106
2000024S12100 2000 6 SI WA KIRRILY 2000-01-25 04:00:00 TS -12.5388 104.853 25 1000 bom main 594 594 P_____O_____P_ SH092000 -12.5082 104.879 23 -1 -12.6000 104.800 20 25 1000 2.00000 161 1008 3 5 -12.5082 104.879 TC 23 14 105
2000024S12100 2000 6 SI WA KIRRILY 2000-01-25 06:00:00 TS -12.6525 105.295 main 605 598 O_____P_____O_ jtwc_sh SH092000 -12.6000 105.300 25 -1 -12.7576 105.286 20 25 1000 161 1008 -12.6000 105.300 TC 25 12 105
2000024S12100 2000 6 SI WA KIRRILY 2000-01-25 09:00:00 TS -12.7892 105.823 main 608 607 P_____P_____P_ SH092000 -12.7072 105.738 25 -1 -12.9532 105.993 20 25 1000 161 1008 -12.7072 105.738 TC 25 10 105
2000024S12100 2000 6 SI WA KIRRILY 2000-01-25 10:00:00 TS -12.8257 105.974 25 1000 bom main 604 600 P_____O_____P_ SH092000 -12.7385 105.861 25 -1 -13.0000 106.200 20 25 1000 2.00000 161 1008 3 5 -12.7385 105.861 TC 25 8 103
2000024S12100 2000 6 SI WA KIRRILY 2000-01-25 12:00:00 TS -12.8819 106.241 main 608 597 O_____P_____O_ jtwc_sh SH092000 -12.8000 106.100 25 -1 -13.0458 106.523 20 25 1000 161 1008 -12.8000 106.100 TC 25 8 101
2000024S12100 2000 6 SI WA KIRRILY 2000-01-25 15:00:00 TS -12.9446 106.614 main 597 597 P_____P_____P_ SH092000 -12.8771 106.448 25 -1 -13.0796 106.946 20 25 1000 161 1008 -12.8771 106.448 TC 25 8 100
2000024S12100 2000 6 SI WA KIRRILY 2000-01-25 16:00:00 TS -12.9728 106.752 25 1000 bom main 603 598 P_____O_____P_ SH092000 -12.9093 106.578 25 -1 -13.1000 107.100 20 25 1000 2.00000 161 1008 3 5 -12.9093 106.578 TC 25 10 104
2000024S12100 2000 6 SI WA KIRRILY 2000-01-25 18:00:00 TS -13.0578 107.092 main 609 603 O_____P_____O_ jtwc_sh SH092000 -13.0000 106.900 25 -1 -13.1733 107.476 20 25 1000 161 1008 -13.0000 106.900 TC 25 12 106
2000024S12100 2000 6 SI WA KIRRILY 2000-01-25 21:00:00 TS -13.2579 107.767 main 619 617 P_____P_____P_ SH092000 -13.2202 107.605 25 -1 -13.3333 108.092 20 25 1000 161 1008 -13.2202 107.605 TC 25 14 107
2000024S12100 2000 6 SI WA KIRRILY 2000-01-25 22:00:00 TS -13.3395 108.013 25 1000 bom main 617 617 P_____O_____P_ SH092000 -13.3093 107.870 25 -1 -13.4000 108.300 20 25 1000 2.00000 161 1008 3 5 -13.3093 107.870 TC 25 15 109
2000024S12100 2000 6 SI WA KIRRILY 2000-01-26 00:00:00 TS -13.5097 108.505 main 638 635 O_____P_____O_ jtwc_sh SH092000 -13.5000 108.400 25 -1 -13.5291 108.716 20 25 1000 161 1008 -13.5000 108.400 TC 25 15 111
2000024S12100 2000 6 SI WA KIRRILY 2000-01-26 03:00:00 TS -13.7812 109.202 main 648 645 P_____P_____P_ SH092000 -13.7775 109.145 25 -1 -13.7886 109.317 20 25 1000 161 1008 -13.7775 109.145 TC 25 14 113
2000024S12100 2000 6 SI WA KIRRILY 2000-01-26 04:00:00 TS -13.8859 109.419 25 1000 bom main 653 651 P_____O_____P_ SH092000 -13.8788 109.378 25 -1 -13.9000 109.500 20 25 1000 2.00000 161 1008 3 5 -13.8788 109.378 TC 25 14 120
2000024S12100 2000 6 SI WA KIRRILY 2000-01-26 06:00:00 TS -14.1264 109.812 main 667 667 O_____P_____O_ jtwc_sh SH092000 -14.1000 109.800 25 -1 -14.1791 109.835 20 26 999 161 1008 -14.1000 109.800 TC 25 13 128
2000024S12100 2000 6 SI WA KIRRILY 2000-01-26 09:00:00 TS -14.5401 110.282 main 699 699 P_____P_____P_ SH092000 -14.4847 110.288 25 -1 -14.6509 110.269 20 29 998 161 1008 -14.4847 110.288 TC 25 12 133
2000024S12100 2000 6 SI WA KIRRILY 2000-01-26 10:00:00 TS -14.6815 110.418 30 998 bom main 719 717 P_____O_____P_ SH092000 -14.6222 110.427 25 -1 -14.8000 110.400 20 30 998 2.50000 161 1008 3 5 -14.6222 110.427 TC 25 11 136
2000024S12100 2000 6 SI WA KIRRILY 2000-01-26 12:00:00 TS -14.9479 110.681 main 736 736 O_____P_____O_ jtwc_sh SH092000 -14.9000 110.700 25 -1 -15.0436 110.644 20 31 997 161 1008 -14.9000 110.700 TC 25 11 134
2000024S12100 2000 6 SI WA KIRRILY 2000-01-26 15:00:00 TS -15.3326 111.104 main 775 775 P_____P_____P_ SH092000 -15.3075 111.165 25 -1 -15.3828 110.983 20 34 995 161 1008 -15.3075 111.165 TC 25 11 133
2000024S12100 2000 6 SI WA KIRRILY 2000-01-26 16:00:00 TS -15.4608 111.244 35 995 bom main 774 741 P_____O_____P_ SH092000 -15.4412 111.316 25 -1 -15.5000 111.100 30 35 995 3.00000 161 1008 3 5 -15.4412 111.316 TC 25 11 134
2000024S12100 2000 6 SI WA KIRRILY 2000-01-26 18:00:00 TS -15.7250 111.525 main 741 685 O_____P_____O_ jtwc_sh SH092000 -15.7000 111.600 25 -1 -15.7751 111.375 30 35 995 169 1008 -15.7000 111.600 TC 25 11 134
2000024S12100 2000 6 SI WA KIRRILY 2000-01-26 21:00:00 TS -16.0987 111.934 main 685 671 P_____P_____P_ SH092000 -16.0575 112.010 25 -1 -16.1812 111.781 30 35 995 183 1008 -16.0575 112.010 TC 25 11 134
2000024S12100 2000 6 SI WA KIRRILY 2000-01-26 22:00:00 TS -16.2147 112.050 35 995 bom main 671 643 P_____O_____P_ SH092000 -16.1721 112.125 25 -1 -16.3000 111.900 30 35 995 3.00000 188 1008 3 5 -16.1721 112.125 TC 25 9 139
2000024S12100 2000 6 SI WA KIRRILY 2000-01-27 00:00:00 TS -16.4355 112.239 main 643 605 O_____P_____O_ jtwc_sh SH092000 -16.4000 112.300 25 -1 -16.5066 112.118 30 35 995 188 1008 -16.4000 112.300 TC 25 8 148
2000024S12100 2000 6 SI WA KIRRILY 2000-01-27 03:00:00 TS -16.7471 112.396 main 605 594 P_____P_____P_ SH092000 -16.7499 112.418 27 -1 -16.7416 112.353 30 35 995 188 1008 -16.7499 112.418 TC 27 7 158
2000024S12100 2000 6 SI WA KIRRILY 2000-01-27 04:00:00 TS -16.8444 112.415 35 995 bom main 594 573 P_____O_____P_ SH092000 -16.8666 112.423 28 -1 -16.8000 112.400 30 35 995 3.00000 188 1008 3 5 -16.8666 112.423 TC 28 6 173
2000024S12100 2000 6 SI WA KIRRILY 2000-01-27 06:00:00 TS -17.0246 112.429 main 573 541 O_____P_____O_ jtwc_sh SH092000 -17.1000 112.400 30 -1 -16.8739 112.488 30 36 993 188 1008 -17.1000 112.400 TC 30 6 185
2000024S12100 2000 6 SI WA KIRRILY 2000-01-27 09:00:00 TS -17.3007 112.380 main 541 530 P_____P_____P_ SH092000 -17.4725 112.338 30 -1 -16.9573 112.464 30 39 990 188 1008 -17.4725 112.338 TC 30 6 194
2000024S12100 2000 6 SI WA KIRRILY 2000-01-27 10:00:00 TS -17.3936 112.333 40 990 bom main 533 516 P_____O_____P_ SH092000 -17.5903 112.299 30 -1 -17.0000 112.400 30 40 990 3.00000 188 1008 3 5 -17.5903 112.299 TC 30 7 212
2000024S12100 2000 6 SI WA KIRRILY 2000-01-27 12:00:00 TS -17.5828 112.192 main 516 504 O_____P_____O_ jtwc_sh SH092000 -17.8000 112.200 30 -1 -17.1485 112.177 30 43 988 188 1008 -17.8000 112.200 TC 30 7 222
2000024S12100 2000 6 SI WA KIRRILY 2000-01-27 15:00:00 TS -17.8298 111.923 main 508 498 P_____P_____P_ SH092000 -18.0374 112.045 30 -1 -17.4146 111.679 30 48 985 188 1008 -18.0374 112.045 TC 30 7 228
2000024S12100 2000 6 SI WA KIRRILY 2000-01-27 16:00:00 TS -17.8991 111.817 50 985 bom main 503 498 P_____O_____P_ SH092000 -18.0987 111.976 30 -1 -17.5000 111.500 30 50 985 3.50000 188 1008 3 5 -18.0987 111.976 TC 30 7 240
2000024S12100 2000 6 SI WA KIRRILY 2000-01-27 18:00:00 TS -18.0138 111.582 main 503 498 O_____P_____O_ jtwc_sh SH092000 -18.2000 111.800 30 -1 -17.6414 111.147 30 50 985 188 1008 -18.2000 111.800 TC 30 8 247
2000024S12100 2000 6 SI WA KIRRILY 2000-01-27 21:00:00 TS -18.1604 111.172 main 506 506 P_____P_____P_ SH092000 -18.3225 111.437 32 -1 -17.8360 110.641 30 50 985 188 1009 -18.3225 111.437 TC 32 8 250
2000024S12100 2000 6 SI WA KIRRILY 2000-01-27 22:00:00 TS -18.2014 111.031 50 985 bom main 519 516 P_____O_____P_ SH092000 -18.3521 111.296 33 -1 -17.9000 110.500 30 50 985 3.50000 188 1010 3 5 -18.3521 111.296 TC 33 8 254
2000024S12100 2000 6 SI WA KIRRILY 2000-01-28 00:00:00 TS -18.2759 110.763 main 523 523 O_____P_____O_ jtwc_sh SH092000 -18.4000 111.000 35 0 -18.0277 110.288 30 50 985 188 1010 -18.4000 111.000 TC 35 8 255
2000024S12100 2000 6 SI WA KIRRILY 2000-01-28 03:00:00 TS -18.3709 110.383 main 542 542 P_____P_____P_ SH092000 -18.4425 110.542 42 0 -18.2275 110.064 30 50 985 188 1010 -18.4425 110.542 TC 42 7 255
2000024S12100 2000 6 SI WA KIRRILY 2000-01-28 04:00:00 TS -18.4042 110.260 50 985 bom main 549 549 P_____O_____P_ SH092000 -18.4563 110.389 45 0 -18.3000 110.000 30 50 985 3.50000 188 1010 3 5 -18.4563 110.389 TC 45 7 251
2000024S12100 2000 6 SI WA KIRRILY 2000-01-28 06:00:00 TS -18.4880 110.021 main 564 564 O_____P_____O_ jtwc_sh SH092000 -18.5000 110.100 50 0 -18.4641 109.864 30 53 985 188 1010 -18.5000 110.100 TC 50 7 244
2000024S12100 2000 6 SI WA KIRRILY 2000-01-28 09:00:00 TS -18.6582 109.708 main 573 573 P_____P_____P_ SH092000 -18.6274 109.727 52 0 -18.7197 109.670 30 58 985 188 1010 -18.6274 109.727 TC 52 7 239
2000024S12100 2000 6 SI WA KIRRILY 2000-01-28 10:00:00 TS -18.7208 109.610 60 985 bom main 581 574 P_____O_____P_ SH092000 -18.6811 109.615 53 0 -18.8000 109.600 30 60 985 4.00000 188 1010 3 5 -18.6811 109.615 TC 53 7 236
2000024S12100 2000 6 SI WA KIRRILY 2000-01-28 12:00:00 TS -18.8452 109.417 main 591 585 O_____P_____O_ jtwc_sh SH092000 -18.8000 109.400 55 0 -18.9357 109.452 30 61 985 188 1010 -18.8000 109.400 TC 55 7 236
2000024S12100 2000 6 SI WA KIRRILY 2000-01-28 15:00:00 TS -19.0333 109.127 main 604 598 P_____P_____P_ SH092000 -18.9849 109.092 60 0 -19.1302 109.197 30 64 985 188 1010 -18.9849 109.092 TC 60 7 235
2000024S12100 2000 6 SI WA KIRRILY 2000-01-28 16:00:00 TS -19.1022 109.030 65 985 bom main 607 601 P_____O_____P_ SH092000 -19.0533 108.994 61 0 -19.2000 109.100 40 65 985 4.50000 188 1010 3 5 -19.0533 108.994 TC 61 7 232
2000024S12100 2000 6 SI WA KIRRILY 2000-01-28 18:00:00 TS -19.2529 108.826 main 614 614 O_____P_____O_ jtwc_sh SH092000 -19.2000 108.800 65 1 -19.3588 108.877 40 68 983 188 1010 -19.2000 108.800 TC 65 8 231
2000024S12100 2000 6 SI WA KIRRILY 2000-01-28 21:00:00 TS -19.4946 108.510 main 631 631 P_____P_____P_ SH092000 -19.4349 108.507 67 1 -19.6141 108.516 40 73 980 188 1010 -19.4349 108.507 TC 67 8 230
2000024S12100 2000 6 SI WA KIRRILY 2000-01-28 22:00:00 TS -19.5799 108.405 75 980 bom main 635 635 P_____O_____P_ SH092000 -19.5199 108.408 68 1 -19.7000 108.400 40 75 980 4.50000 188 1010 3 5 -19.5199 108.408 TC 68 8 228
2000024S12100 2000 6 SI WA KIRRILY 2000-01-29 00:00:00 TS -19.7555 108.197 main 641 641 O_____P_____O_ jtwc_sh SH092000 -19.7000 108.200 70 1 -19.8666 108.192 40 75 978 188 1010 -19.7000 108.200 TC 70 8 229
2000024S12100 2000 6 SI WA KIRRILY 2000-01-29 03:00:00 TS -20.0339 107.861 main 657 657 P_____P_____P_ SH092000 -19.9926 107.843 75 1 -20.1166 107.897 40 75 975 188 1010 -19.9926 107.843 TC 75 8 228
2000024S12100 2000 6 SI WA KIRRILY 2000-01-29 04:00:00 TS -20.1297 107.749 75 975 bom main 671 666 P_____O_____P_ SH092000 -20.0946 107.723 76 1 -20.2000 107.800 40 75 975 4.50000 188 1010 4 5 -20.0946 107.723 TC 76 8 227
2000024S12100 2000 6 SI WA KIRRILY 2000-01-29 06:00:00 TS -20.3204 107.532 main 681 677 O_____P_____O_ jtwc_sh SH092000 -20.3000 107.500 80 1 -20.3612 107.594 40 73 975 188 1010 -20.3000 107.500 TC 80 8 224
2000024S12100 2000 6 SI WA KIRRILY 2000-01-29 09:00:00 TS -20.6086 107.255 main 688 688 P_____P_____P_ SH092000 -20.6074 107.235 82 1 -20.6110 107.294 40 70 975 188 1010 -20.6074 107.235 TC 82 8 221
2000024S12100 2000 6 SI WA KIRRILY 2000-01-29 10:00:00 TS -20.7052 107.170 70 975 bom main 694 694 P_____O_____P_ SH092000 -20.7078 107.156 83 2 -20.7000 107.200 40 70 975 4.50000 188 1010 4 5 -20.7078 107.156 TC 83 7 218
2000024S12100 2000 6 SI WA KIRRILY 2000-01-29 12:00:00 TS -20.9010 107.008 main 707 704 O_____P_____O_ jtwc_sh SH092000 -20.9000 107.000 85 2 -20.9029 107.025 40 66 975 188 1010 -20.9000 107.000 TC 85 7 220
2000024S12100 2000 6 SI WA KIRRILY 2000-01-29 15:00:00 TS -21.1746 106.755 main 718 718 P_____P_____P_ SH092000 -21.1575 106.742 80 1 -21.2088 106.781 40 61 975 188 1010 -21.1575 106.742 TC 80 7 221
2000024S12100 2000 6 SI WA KIRRILY 2000-01-29 16:00:00 TS -21.2592 106.672 60 975 bom main 726 726 P_____O_____P_ SH092000 -21.2388 106.659 78 1 -21.3000 106.700 30 60 975 4.00000 188 1010 4 5 -21.2388 106.659 TC 78 7 224
2000024S12100 2000 6 SI WA KIRRILY 2000-01-29 18:00:00 TS -21.4146 106.511 main 743 741 O_____P_____O_ jtwc_sh SH092000 -21.4000 106.500 75 1 -21.4437 106.533 30 60 975 188 1010 -21.4000 106.500 TC 75 6 224
2000024S12100 2000 6 SI WA KIRRILY 2000-01-29 21:00:00 TS -21.6343 106.284 main 760 758 P_____P_____P_ SH092000 -21.6350 106.285 72 1 -21.6328 106.283 30 60 975 188 1011 -21.6350 106.285 TC 72 6 223
2000024S12100 2000 6 SI WA KIRRILY 2000-01-29 22:00:00 TS -21.7117 106.213 60 975 bom main 768 766 P_____O_____P_ SH092000 -21.7175 106.220 71 1 -21.7000 106.200 30 60 975 4.00000 188 1012 4 5 -21.7175 106.220 TC 71 6 219
2000024S12100 2000 6 SI WA KIRRILY 2000-01-30 00:00:00 TS -21.8790 106.071 main 775 775 O_____P_____O_ jtwc_sh SH092000 -21.9000 106.100 70 1 -21.8371 106.012 30 58 976 188 1012 -21.9000 106.100 TC 70 7 213
2000024S12100 2000 6 SI WA KIRRILY 2000-01-30 03:00:00 TS -22.1971 105.872 main 792 792 P_____P_____P_ SH092000 -22.2500 105.928 67 1 -22.0912 105.761 30 55 979 188 1012 -22.2500 105.928 TC 67 7 208
2000024S12100 2000 6 SI WA KIRRILY 2000-01-30 04:00:00 TS -22.3144 105.819 55 980 bom main 801 800 P_____O_____P_ SH092000 -22.3716 105.879 66 1 -22.2000 105.700 30 55 980 4.00000 188 1012 3 5 -22.3716 105.879 TC 66 8 197
2000024S12100 2000 6 SI WA KIRRILY 2000-01-30 06:00:00 TS -22.5688 105.743 main 809 801 O_____P_____O_ jtwc_sh SH092000 -22.6000 105.800 65 1 -22.5064 105.630 30 55 980 188 1012 -22.6000 105.800 TC 65 7 191
2000024S12100 2000 6 SI WA KIRRILY 2000-01-30 09:00:00 TS -22.9181 105.690 main 801 798 P_____P_____P_ SH092000 -22.8875 105.735 65 1 -22.9795 105.600 30 55 980 188 1012 -22.8875 105.735 TC 65 7 186
2000024S12100 2000 6 SI WA KIRRILY 2000-01-30 10:00:00 TS -23.0119 105.682 55 980 bom main 798 796 P_____O_____P_ SH092000 -22.9679 105.722 65 1 -23.1000 105.600 30 55 980 4.00000 188 1012 3 5 -22.9679 105.722 TC 65 4 186
2000024S12100 2000 6 SI WA KIRRILY 2000-01-30 12:00:00 TS -23.1407 105.666 main 796 794 O_____P_____O_ jtwc_sh SH092000 -23.1000 105.700 65 1 -23.2220 105.597 30 53 981 188 1012 -23.1000 105.700 TC 65 3 191
2000024S12100 2000 6 SI WA KIRRILY 2000-01-30 15:00:00 TS -23.2483 105.634 main 804 802 P_____P_____P_ SH092000 -23.2300 105.650 60 0 -23.2850 105.603 30 50 984 188 1012 -23.2300 105.650 TC 60 2 197
2000024S12100 2000 6 SI WA KIRRILY 2000-01-30 16:00:00 TS -23.2717 105.622 50 985 bom main 802 802 P_____O_____P_ SH092000 -23.2575 105.633 58 0 -23.3000 105.600 30 50 985 3.50000 188 1012 3 5 -23.2575 105.633 TC 58 2 211
2000024S12100 2000 6 SI WA KIRRILY 2000-01-30 18:00:00 TS -23.3240 105.592 main 802 800 O_____P_____O_ jtwc_sh SH092000 -23.3000 105.600 55 0 -23.3721 105.575 30 46 986 188 1012 -23.3000 105.600 TC 55 2 209
2000024S12100 2000 6 SI WA KIRRILY 2000-01-30 21:00:00 TS -23.4008 105.545 main 810 810 P_____P_____P_ SH092000 -23.3650 105.557 50 0 -23.4724 105.519 30 41 989 188 1012 -23.3650 105.557 TC 50 2 211
2000024S12100 2000 6 SI WA KIRRILY 2000-01-30 22:00:00 TS -23.4200 105.527 40 990 bom main 810 810 P_____O_____P_ SH092000 -23.3800 105.541 48 0 -23.5000 105.500 30 40 990 3.00000 188 1012 3 5 -23.3800 105.541 TC 48 1 231
2000024S12100 2000 6 SI WA KIRRILY 2000-01-31 00:00:00 TS -23.4507 105.487 main 808 808 O_____P_____O_ jtwc_sh SH092000 -23.4000 105.500 45 0 -23.5521 105.461 30 40 990 188 1012 -23.4000 105.500 TC 45 2 240
2000024S12100 2000 6 SI WA KIRRILY 2000-01-31 03:00:00 TS -23.4858 105.404 main 818 818 P_____P_____P_ SH092000 -23.4300 105.400 40 0 -23.5974 105.411 30 40 990 188 1012 -23.4300 105.400 TC 40 2 252
2000024S12100 2000 6 SI WA KIRRILY 2000-01-31 04:00:00 TS -23.4861 105.376 40 990 bom main 818 818 P_____O_____P_ SH092000 -23.4291 105.364 38 0 -23.6000 105.400 30 40 990 3.00000 188 1012 3 5 -23.4291 105.364 TC 38 1 290
2000024S12100 2000 6 SI WA KIRRILY 2000-01-31 06:00:00 TS -23.4662 105.336 main 828 828 O_____P_____O_ jtwc_sh SH092000 -23.4000 105.300 35 0 -23.5987 105.408 30 38 991 188 1012 -23.4000 105.300 TC 35 2 331
2000024S12100 2000 6 SI WA KIRRILY 2000-01-31 09:00:00 TS -23.3563 105.305 main 830 830 P_____P_____P_ SH092000 -23.2650 105.250 35 0 -23.5390 105.415 30 35 994 188 1012 -23.2650 105.250 TC 35 3 350
2000024S12100 2000 6 SI WA KIRRILY 2000-01-31 10:00:00 TS -23.3056 105.291 35 995 bom main 832 832 P_____O_____P_ SH092000 -23.2084 105.236 35 0 -23.5000 105.400 30 35 995 3.00000 188 1012 3 5 -23.2084 105.236 TC 35 3 343
2000024S12100 2000 6 SI WA KIRRILY 2000-01-31 12:00:00 TS -23.1959 105.241 main 844 844 O_____P_____O_ jtwc_sh SH092000 -23.1000 105.200 35 0 -23.3877 105.322 30 33 996 179 1012 -23.1000 105.200 TC 35 3 330
2000024S12100 2000 6 SI WA KIRRILY 2000-01-31 15:00:00 TS -23.0572 105.129 main 856 856 P_____P_____P_ SH092000 -23.0000 105.115 35 0 -23.1717 105.156 30 30 999 165 1012 -23.0000 105.115 TC 35 3 323
2000024S12100 2000 6 SI WA KIRRILY 2000-01-31 16:00:00 TS -23.0127 105.087 30 1000 bom main 858 858 P_____O_____P_ SH092000 -22.9691 105.080 35 0 -23.1000 105.100 20 30 1000 2.50000 161 1012 3 5 -22.9691 105.080 TC 35 4 319
2000024S12100 2000 6 SI WA KIRRILY 2000-01-31 18:00:00 TS -22.9240 105.000 main 871 871 O_____P_____O_ jtwc_sh SH092000 -22.9000 105.000 35 0 -22.9721 105.000 20 -22.9000 105.000 TC 35 4 321
2000024S12100 2000 6 SI WA KIRRILY 2000-01-31 21:00:00 TS -22.7729 104.880 main 883 883 P_____P_____P_ SH092000 -22.7499 104.880 32 -1 -22.8190 104.880 20 -22.7499 104.880 TC 32 4 319
2000024S12100 2000 6 SI WA KIRRILY 2000-02-01 00:00:00 TS -22.6360 104.731 main 909 909 O_____P_____O_ jtwc_sh SH092000 -22.6000 104.700 30 -1 -22.7080 104.794 20 -22.6000 104.700 TC 30 4 305
2000024S12100 2000 6 SI WA KIRRILY 2000-02-01 03:00:00 TS -22.5447 104.528 main 931 931 P_____P_____P_ SH092000 -22.5000 104.423 30 -1 -22.6339 104.738 20 -22.5000 104.423 TC 30 4 293
2000024S12100 2000 6 SI WA KIRRILY 2000-02-01 06:00:00 TS -22.4640 104.302 main 951 951 O_____P_____O_ jtwc_sh SH092000 -22.4000 104.100 30 -1 -22.5919 104.706 20 -22.4000 104.100 TC 30 4 295
2000024S12100 2000 6 SI WA KIRRILY 2000-02-01 09:00:00 TS -22.3589 104.099 main 974 974 P_____P_____P_ SH092000 -22.2499 103.800 30 -1 -22.5769 104.696 20 -22.2499 103.800 TC 30 3 300
2000024S12100 2000 6 SI WA KIRRILY 2000-02-01 12:00:00 TS -22.2935 103.981 main 986 986 O_____P_____O_ jtwc_sh SH092000 -22.1000 103.500 30 -1 -22.5838 104.703 20 -22.1000 103.500 TC 30 1 297
2000024S12100 2000 6 SI WA KIRRILY 2000-02-01 15:00:00 TS -22.2976 103.962 main 986 986 P_____P_____P_ SH092000 -21.9876 103.200 27 -1 -22.6075 104.723 20 -21.9876 103.200 TC 27 1 140
2000024S12100 2000 6 SI WA KIRRILY 2000-02-01 18:00:00 TS -22.3458 104.012 main 986 896 O_____P_____O_ jtwc_sh SH092000 -21.9000 102.900 25 -1 -22.6430 104.753 20 -21.9000 102.900 TC 25 9 117
2000024S12100 2000 6 SI WA KIRRILY 2000-02-01 21:00:00 NR -22.6853 104.788 main 896 896 ______P_______ SH092000 -1 -22.6853 104.788 20 TC 12 116
2000024S12100 2000 6 SI WA KIRRILY 2000-02-01 22:00:00 NR -22.7000 104.800 25 1000 bom main 896 ______O_______ SH092000 -1 -22.7000 104.800 20 25 1000 2.00000 161 1012 3 5 TC 1 0

IBTrACS Databaseについて

本データベースは、米国NOAAが公開する1842年以降の世界の熱帯低気圧のベストトラックデータアーカイブInternational Best Track Archive for Climate Stewardship (IBTrACS)を、ウェブで閲覧しやすい形式に変換したものです。

最終更新日:2021-10-21